Time;durP1;ratioP1;P1;durP2;ratioP2;P2;SDS_P1;SDS_P2;PMS_P1;PMS_P2;Temp;Humidity;BMP_temperature;BMP_pressure;BME280_temperature;BME280_humidity;BME280_pressure;Samples;Min_cycle;Max_cycle;Signal;HPM_P1;HPM_P2
2023/12/11 00:00:08;;;;;;;8.80;6.90;;;;;;;22.10;29.52;101079.27;103388;1298;74415;-81
2023/12/11 00:02:33;;;;;;;9.10;6.80;;;;;;;22.10;29.49;101077.48;103159;1297;61349;-81
2023/12/11 00:04:59;;;;;;;9.70;7.30;;;;;;;22.10;29.30;101072.11;103019;1301;61393;-81
2023/12/11 00:07:25;;;;;;;8.90;6.70;;;;;;;22.11;29.37;101076.02;103033;1301;61508;-81
2023/12/11 00:09:50;;;;;;;8.40;6.80;;;;;;;22.11;29.37;101074.74;102966;1299;61388;-82
2023/12/11 00:12:16;;;;;;;9.90;7.00;;;;;;;22.11;29.41;101071.71;103097;1297;62137;-81
2023/12/11 00:14:42;;;;;;;10.40;6.90;;;;;;;22.11;29.31;101072.42;103114;1299;61307;-82
2023/12/11 00:17:09;;;;;;;11.00;6.90;;;;;;;22.11;29.48;101066.51;102840;1304;61451;-82
2023/12/11 00:19:34;;;;;;;8.90;6.80;;;;;;;22.10;29.34;101069.05;103154;1297;72554;-81
2023/12/11 00:22:00;;;;;;;8.70;6.50;;;;;;;22.10;29.39;101068.86;103119;1297;61534;-83
2023/12/11 00:24:26;;;;;;;9.60;6.90;;;;;;;22.11;29.42;101066.48;103118;1301;61329;-82
2023/12/11 00:26:52;;;;;;;8.50;6.70;;;;;;;22.11;29.43;101064.20;103119;1301;61355;-81
2023/12/11 00:29:17;;;;;;;8.90;7.10;;;;;;;22.11;29.37;101064.73;103105;1297;61476;-81
2023/12/11 00:31:43;;;;;;;8.70;7.00;;;;;;;22.11;29.35;101063.11;103055;1297;61735;-81
2023/12/11 00:34:09;;;;;;;8.50;6.60;;;;;;;22.10;29.30;101063.66;103209;1299;74544;-82
2023/12/11 00:36:35;;;;;;;8.30;6.60;;;;;;;22.11;29.38;101065.97;103187;1298;61420;-81
2023/12/11 00:39:01;;;;;;;8.70;6.50;;;;;;;22.10;29.36;101066.17;103160;1296;61393;-81
2023/12/11 00:41:26;;;;;;;8.60;6.60;;;;;;;22.11;29.36;101064.88;103239;1299;61350;-82
2023/12/11 00:43:52;;;;;;;8.70;6.50;;;;;;;22.10;29.41;101062.94;103266;1298;61393;-81
2023/12/11 00:46:22;;;;;;;8.30;6.60;;;;;;;22.11;29.35;101062.21;103236;1298;61461;-81
2023/12/11 00:48:51;;;;;;;7.50;6.40;;;;;;;22.10;29.42;101062.75;103294;1299;61263;-81
2023/12/11 00:51:17;;;;;;;9.30;6.70;;;;;;;22.10;29.33;101063.30;103441;1296;61349;-82
2023/12/11 00:53:44;;;;;;;7.80;6.60;;;;;;;22.10;29.49;101062.78;103220;1298;61483;-81
2023/12/11 00:56:10;;;;;;;8.60;6.40;;;;;;;22.11;29.38;101061.67;103203;1299;74275;-81
2023/12/11 00:58:36;;;;;;;8.20;6.50;;;;;;;22.11;29.39;101062.20;103245;1299;62032;-81
2023/12/11 01:01:01;;;;;;;8.30;6.70;;;;;;;22.11;29.33;101058.81;103314;1299;61927;-81
2023/12/11 01:03:27;;;;;;;10.30;6.30;;;;;;;22.10;29.41;101054.70;103239;1298;61329;-81
2023/12/11 01:05:53;;;;;;;8.90;6.60;;;;;;;22.10;29.29;101053.45;103037;1296;61329;-81
2023/12/11 01:08:18;;;;;;;8.00;6.30;;;;;;;22.10;29.53;101043.23;103315;1298;61296;-82
2023/12/11 01:10:44;;;;;;;8.10;6.10;;;;;;;22.10;29.32;101041.61;103263;1295;61291;-81
2023/12/11 01:13:10;;;;;;;8.30;6.40;;;;;;;22.10;29.27;101038.04;103119;1299;62141;-81
2023/12/11 01:15:35;;;;;;;8.30;6.40;;;;;;;22.10;29.42;101034.63;103181;1297;61506;-81
2023/12/11 01:18:01;;;;;;;7.80;6.40;;;;;;;22.10;29.32;101033.94;103215;1294;61336;-81
2023/12/11 01:20:27;;;;;;;8.50;6.60;;;;;;;22.11;29.31;101031.56;103306;1298;61212;-81
2023/12/11 01:22:53;;;;;;;9.20;6.50;;;;;;;22.10;29.39;101029.09;103345;1295;61400;-81
2023/12/11 01:25:19;;;;;;;8.40;6.60;;;;;;;22.10;29.27;101029.46;103304;1298;61424;-81
2023/12/11 01:27:44;;;;;;;8.60;6.50;;;;;;;22.11;29.33;101025.27;103253;1296;61408;-81
2023/12/11 01:30:10;;;;;;;9.70;7.10;;;;;;;22.11;29.32;101028.66;103284;1298;61301;-81
2023/12/11 01:32:36;;;;;;;8.70;6.70;;;;;;;22.10;29.35;101023.15;103337;1298;61424;-82
2023/12/11 01:35:01;;;;;;;8.90;6.80;;;;;;;22.10;29.36;101022.25;103240;1295;61331;-81
2023/12/11 01:37:27;;;;;;;9.20;6.70;;;;;;;22.11;29.35;101021.30;103502;1299;61471;-81
2023/12/11 01:39:53;;;;;;;7.80;6.10;;;;;;;22.11;29.30;101018.98;103294;1298;70590;-81
2023/12/11 01:42:18;;;;;;;8.30;6.30;;;;;;;22.11;29.23;101009.83;103021;1299;61459;-81
2023/12/11 01:44:44;;;;;;;8.40;6.70;;;;;;;22.11;29.32;101007.15;103089;1299;61797;-81
2023/12/11 01:47:10;;;;;;;8.60;6.80;;;;;;;22.11;29.29;101009.66;103259;1299;61405;-81
2023/12/11 01:49:36;;;;;;;9.70;6.50;;;;;;;22.11;29.22;101005.02;103201;1296;61486;-81
2023/12/11 01:52:02;;;;;;;9.00;6.70;;;;;;;22.11;29.25;101006.98;103226;1298;61408;-81
2023/12/11 01:54:28;;;;;;;8.80;6.90;;;;;;;22.11;29.47;101003.40;103143;1298;74345;-81
2023/12/11 01:56:54;;;;;;;8.80;6.80;;;;;;;22.11;29.37;101007.52;103224;1298;61346;-81
2023/12/11 01:59:19;;;;;;;8.70;6.90;;;;;;;22.11;29.28;101007.33;103175;1298;61200;-81
2023/12/11 02:01:45;;;;;;;8.30;6.40;;;;;;;22.11;29.21;101010.20;103233;1299;62296;-82
2023/12/11 02:04:11;;;;;;;8.80;7.00;;;;;;;22.11;29.29;101014.84;103201;1298;61387;-81
2023/12/11 02:06:36;;;;;;;8.30;6.60;;;;;;;22.11;29.24;101010.93;103318;1299;61368;-81
2023/12/11 02:09:02;;;;;;;9.30;6.70;;;;;;;22.11;29.25;101010.20;103212;1299;61328;-81
2023/12/11 02:11:28;;;;;;;8.20;6.40;;;;;;;22.11;29.18;101007.85;103165;1296;61465;-81
2023/12/11 02:13:53;;;;;;;9.20;6.70;;;;;;;22.11;29.33;101017.54;103300;1302;61492;-81
2023/12/11 02:16:19;;;;;;;8.70;6.80;;;;;;;22.12;29.36;101016.98;103247;1296;61308;-81
2023/12/11 02:18:45;;;;;;;8.10;6.80;;;;;;;22.12;29.36;101018.79;103392;1295;61430;-82
2023/12/11 02:21:17;;;;;;;8.30;6.70;;;;;;;22.11;29.24;101017.16;103280;1298;61391;-82
2023/12/11 02:23:47;;;;;;;9.30;7.10;;;;;;;22.12;29.37;101018.59;103440;1297;61423;-81
2023/12/11 02:26:16;;;;;;;8.60;6.70;;;;;;;22.12;29.26;101019.30;103127;1294;71598;-81
2023/12/11 02:28:42;;;;;;;;;;;;;;;22.12;29.29;101020.89;103219;1296;74469;-82
2023/12/11 02:31:08;;;;;;;8.90;6.80;;;;;;;22.09;29.26;101020.71;103233;1297;61406;-81
2023/12/11 02:33:33;;;;;;;9.40;6.90;;;;;;;22.10;29.35;101014.02;103186;1296;61712;-81
2023/12/11 02:35:59;;;;;;;8.70;6.30;;;;;;;22.11;29.24;101010.58;103207;1298;61311;-81
2023/12/11 02:38:25;;;;;;;11.10;7.30;;;;;;;22.11;29.23;101005.21;103206;1296;61396;-81
2023/12/11 02:40:50;;;;;;;8.50;6.30;;;;;;;22.10;29.34;101002.20;103563;1295;61858;-81
2023/12/11 02:43:16;;;;;;;8.20;6.40;;;;;;;22.10;29.36;101003.42;103316;1298;61272;-81
2023/12/11 02:45:42;;;;;;;12.30;6.70;;;;;;;22.11;29.22;100997.15;103240;1298;61352;-81
2023/12/11 02:48:08;;;;;;;8.90;6.60;;;;;;;22.10;29.19;100997.51;103198;1296;61778;-81
2023/12/11 02:50:33;;;;;;;9.10;7.20;;;;;;;22.11;29.24;100996.25;103201;1299;61772;-82
2023/12/11 02:53:06;;;;;;;9.10;7.10;;;;;;;22.11;29.26;100994.27;103252;1296;61392;-81
2023/12/11 02:55:31;;;;;;;9.90;7.30;;;;;;;22.11;29.32;100987.81;103270;1294;62061;-81
2023/12/11 02:58:02;;;;;;;10.00;7.20;;;;;;;22.11;29.39;100991.02;103303;1298;61331;-80
2023/12/11 03:00:29;;;;;;;9.10;6.80;;;;;;;22.11;29.28;100998.52;103298;1296;75245;-81
2023/12/11 03:02:55;;;;;;;9.30;6.80;;;;;;;22.12;29.29;101001.55;103211;1296;61449;-81
2023/12/11 03:05:21;;;;;;;8.80;6.60;;;;;;;22.11;29.37;101006.23;103083;1296;61877;-81
2023/12/11 03:07:47;;;;;;;8.50;6.80;;;;;;;22.12;29.32;101004.08;103156;1296;61394;-82
2023/12/11 03:10:12;;;;;;;9.60;7.10;;;;;;;22.12;29.25;101002.45;103287;1299;61390;-81
2023/12/11 03:12:38;;;;;;;8.30;6.40;;;;;;;22.12;29.32;101005.88;103173;1296;62820;-82
2023/12/11 03:15:05;;;;;;;9.10;6.90;;;;;;;22.12;29.33;101001.90;103202;1298;61451;-81
2023/12/11 03:17:31;;;;;;;10.60;7.20;;;;;;;22.12;29.37;100996.86;103224;1294;61649;-82
2023/12/11 03:19:56;;;;;;;9.50;6.90;;;;;;;22.12;29.30;100989.51;103223;1298;61354;-81
2023/12/11 03:22:25;;;;;;;8.70;7.00;;;;;;;22.13;29.45;100984.83;103207;1299;61303;-81
2023/12/11 03:24:54;;;;;;;8.50;6.60;;;;;;;22.13;29.27;100976.03;103256;1295;61460;-82
2023/12/11 03:27:23;;;;;;;9.80;7.40;;;;;;;22.13;29.33;100979.27;103243;1296;61319;-81
2023/12/11 03:29:48;;;;;;;8.40;6.90;;;;;;;22.13;29.30;100984.11;103200;1294;72603;-81
2023/12/11 03:32:14;;;;;;;8.60;6.40;;;;;;;22.12;29.23;100991.48;103179;1295;61347;-81
2023/12/11 03:34:40;;;;;;;8.20;6.40;;;;;;;22.13;29.35;100995.40;103179;1296;61421;-82
2023/12/11 03:37:07;;;;;;;10.00;7.20;;;;;;;22.13;29.40;100994.69;103207;1296;61605;-81
2023/12/11 03:39:33;;;;;;;9.90;7.00;;;;;;;22.13;29.28;100996.09;103183;1296;61468;-81
2023/12/11 03:41:59;;;;;;;9.40;7.30;;;;;;;22.13;29.26;100995.40;103179;1298;61342;-82
2023/12/11 03:44:24;;;;;;;8.30;6.90;;;;;;;22.13;29.32;100997.55;103276;1296;61416;-82
2023/12/11 03:46:50;;;;;;;8.50;6.40;;;;;;;22.13;29.26;100999.67;103317;1296;61401;-82
2023/12/11 03:49:17;;;;;;;9.20;6.80;;;;;;;22.13;29.15;101002.54;103192;1296;61803;-82
2023/12/11 03:51:43;;;;;;;8.50;6.60;;;;;;;22.13;29.29;101003.41;103205;1295;72723;-82
2023/12/11 03:54:09;;;;;;;9.70;6.90;;;;;;;22.13;29.15;101004.49;103260;1298;61778;-82
2023/12/11 03:56:34;;;;;;;9.60;7.10;;;;;;;22.13;29.28;101004.70;103177;1294;61508;-82
2023/12/11 03:59:00;;;;;;;9.90;7.20;;;;;;;22.14;29.30;101001.08;103186;1298;61733;-82
2023/12/11 04:01:25;;;;;;;8.50;6.80;;;;;;;22.13;29.33;100995.92;103207;1296;61431;-82
2023/12/11 04:03:51;;;;;;;9.20;6.80;;;;;;;22.13;29.27;100997.70;103276;1296;61395;-82
2023/12/11 04:06:17;;;;;;;8.30;6.70;;;;;;;22.13;29.42;100998.05;103129;1296;74344;-82
2023/12/11 04:08:43;;;;;;;9.60;6.90;;;;;;;22.14;29.35;100994.80;103074;1296;61569;-82
2023/12/11 04:11:09;;;;;;;9.50;6.80;;;;;;;22.13;29.40;100993.02;103195;1298;61287;-82
2023/12/11 04:13:34;;;;;;;8.80;7.00;;;;;;;22.13;29.22;100995.02;103253;1296;61317;-82
2023/12/11 04:16:00;;;;;;;9.60;7.20;;;;;;;22.13;29.39;100991.23;103171;1298;61342;-83
2023/12/11 04:18:26;;;;;;;10.20;7.40;;;;;;;22.13;29.33;100996.45;103301;1298;63130;-82
2023/12/11 04:20:51;;;;;;;8.60;6.50;;;;;;;22.13;29.26;101004.52;103170;1295;61272;-82
2023/12/11 04:23:17;;;;;;;8.20;6.60;;;;;;;22.13;29.26;101005.59;103234;1298;61398;-83
2023/12/11 04:25:43;;;;;;;9.40;7.00;;;;;;;22.13;29.22;101004.49;103235;1296;61395;-82
2023/12/11 04:28:08;;;;;;;8.40;6.70;;;;;;;22.13;29.27;101002.54;103279;1296;61297;-82
2023/12/11 04:30:34;;;;;;;8.80;6.90;;;;;;;22.14;29.23;101000.36;103261;1298;61412;-82
2023/12/11 04:33:00;;;;;;;8.10;6.50;;;;;;;22.14;29.19;101001.81;103281;1298;61490;-82
2023/12/11 04:35:25;;;;;;;9.50;6.60;;;;;;;22.13;29.23;101001.81;103341;1296;61386;-82
2023/12/11 04:37:51;;;;;;;10.20;7.00;;;;;;;22.13;29.39;101004.13;103287;1298;61390;-82
2023/12/11 04:40:16;;;;;;;9.30;7.30;;;;;;;22.13;29.27;101006.11;103468;1298;61414;-82
2023/12/11 04:42:42;;;;;;;9.10;6.60;;;;;;;22.14;29.26;101008.05;103318;1296;61351;-82
2023/12/11 04:45:09;;;;;;;9.00;6.80;;;;;;;22.14;29.34;101011.95;103276;1296;61303;-82
2023/12/11 04:47:34;;;;;;;8.70;6.50;;;;;;;22.14;29.18;101018.27;103369;1296;61396;-82
2023/12/11 04:50:00;;;;;;;9.80;7.10;;;;;;;22.15;29.18;101012.11;103264;1299;74124;-82
2023/12/11 04:52:26;;;;;;;9.30;7.10;;;;;;;22.14;29.32;101004.08;103300;1294;61415;-82
2023/12/11 04:54:52;;;;;;;9.40;6.50;;;;;;;22.14;29.36;101008.23;103417;1295;61410;-82
2023/12/11 04:57:18;;;;;;;7.80;6.30;;;;;;;22.14;29.20;101008.02;103507;1296;61816;-82
2023/12/11 04:59:43;;;;;;;10.10;7.50;;;;;;;22.14;29.23;101007.31;103485;1295;61554;-82
2023/12/11 05:02:09;;;;;;;9.70;6.90;;;;;;;22.14;29.38;101010.70;103298;1298;61470;-82
2023/12/11 05:04:35;;;;;;;8.90;7.20;;;;;;;22.15;29.21;101014.05;103346;1296;61845;-82
2023/12/11 05:07:00;;;;;;;8.50;6.80;;;;;;;22.15;29.27;101015.48;103480;1299;61374;-82
2023/12/11 05:09:26;;;;;;;9.10;6.90;;;;;;;22.14;29.18;101017.48;103316;1296;61428;-82
2023/12/11 05:11:52;;;;;;;10.10;7.80;;;;;;;22.15;29.22;101023.58;103363;1295;61397;-82
2023/12/11 05:14:17;;;;;;;9.90;7.60;;;;;;;22.14;29.34;101017.53;103409;1298;61429;-83
2023/12/11 05:16:43;;;;;;;15.00;8.20;;;;;;;22.13;29.19;101006.84;103209;1296;61763;-83
2023/12/11 05:19:09;;;;;;;11.80;8.60;;;;;;;22.12;29.30;101007.84;103428;1296;61469;-83
2023/12/11 05:21:34;;;;;;;12.00;8.40;;;;;;;22.09;29.13;101004.42;103332;1294;61793;-83
2023/12/11 05:24:00;;;;;;;12.90;9.60;;;;;;;22.06;29.10;101004.27;103276;1295;61502;-82
2023/12/11 05:26:26;;;;;;;13.10;9.50;;;;;;;22.03;28.91;101001.84;103273;1296;61397;-82
2023/12/11 05:28:51;;;;;;;12.70;9.20;;;;;;;21.99;28.87;101005.84;103474;1299;62312;-83
2023/12/11 05:31:17;;;;;;;13.70;9.90;;;;;;;21.97;28.69;101012.31;103345;1298;61409;-82
2023/12/11 05:33:43;;;;;;;15.30;11.10;;;;;;;21.93;28.64;101010.45;103499;1293;61411;-82
2023/12/11 05:36:10;;;;;;;13.10;9.90;;;;;;;21.89;28.62;101013.19;103227;1296;72657;-82
2023/12/11 05:38:35;;;;;;;14.70;10.60;;;;;;;21.86;28.41;101008.08;103303;1299;61402;-83
2023/12/11 05:41:01;;;;;;;13.30;9.90;;;;;;;21.82;28.31;101009.59;103442;1295;61372;-84
2023/12/11 05:43:27;;;;;;;12.10;9.10;;;;;;;21.79;28.13;101015.38;104024;1293;61410;-83
2023/12/11 05:45:52;;;;;;;13.50;9.30;;;;;;;21.75;28.13;101024.41;103790;1296;61354;-83
2023/12/11 05:48:18;;;;;;;13.00;9.70;;;;;;;21.72;28.11;101026.02;104012;1293;61390;-82
2023/12/11 05:50:44;;;;;;;11.80;9.30;;;;;;;21.69;28.14;101023.20;104032;1293;73467;-84
2023/12/11 05:53:10;;;;;;;13.20;9.60;;;;;;;21.66;28.01;101024.32;104171;1294;61438;-82
2023/12/11 05:55:36;;;;;;;13.60;10.40;;;;;;;21.63;27.94;101031.55;103906;1296;61264;-82
2023/12/11 05:58:02;;;;;;;12.40;9.30;;;;;;;21.59;27.88;101030.15;103827;1295;61383;-80
2023/12/11 06:00:28;;;;;;;14.30;10.30;;;;;;;21.57;28.06;101028.00;103943;1296;61393;-82
2023/12/11 06:02:53;;;;;;;16.00;9.90;;;;;;;21.54;27.98;101030.38;104182;1295;62002;-82
2023/12/11 06:05:19;;;;;;;16.20;10.20;;;;;;;21.50;27.97;101033.08;104042;1298;61336;-80
2023/12/11 06:07:45;;;;;;;14.60;10.10;;;;;;;21.49;28.00;101034.27;104150;1298;61422;-81
2023/12/11 06:10:10;;;;;;;14.60;10.30;;;;;;;21.46;27.81;101035.18;103965;1295;61434;-78
2023/12/11 06:12:36;;;;;;;13.10;10.20;;;;;;;21.45;27.93;101036.88;104044;1296;61354;-80
2023/12/11 06:15:02;;;;;;;13.30;10.00;;;;;;;21.44;27.68;101033.72;103546;1295;61506;-82
2023/12/11 06:17:27;;;;;;;17.00;10.50;;;;;;;21.42;27.73;101035.24;104112;1296;60175;-79
2023/12/11 06:19:53;;;;;;;14.50;10.50;;;;;;;21.42;27.71;101035.95;103884;1296;61506;-82
2023/12/11 06:22:19;;;;;;;13.90;10.40;;;;;;;21.43;27.61;101030.71;103667;1295;72448;-82
2023/12/11 06:24:45;;;;;;;15.20;10.30;;;;;;;21.45;27.55;101025.59;103096;1296;62901;-82
2023/12/11 06:27:11;;;;;;;14.80;10.10;;;;;;;21.48;27.58;101020.04;104842;1296;59498;-80
2023/12/11 06:29:38;;;;;;;15.10;9.80;;;;;;;21.48;27.66;101016.74;103269;1298;61451;-80
2023/12/11 06:32:04;;;;;;;15.40;10.40;;;;;;;21.49;27.63;101034.05;103467;1296;61293;-81
2023/12/11 06:34:30;;;;;;;14.70;9.90;;;;;;;21.49;27.50;101037.14;103527;1298;61400;-81
2023/12/11 06:36:56;;;;;;;16.10;10.80;;;;;;;21.48;27.25;101034.69;103516;1296;61405;-80
2023/12/11 06:39:23;;;;;;;14.10;10.60;;;;;;;21.46;27.62;101030.30;103488;1294;61372;-79
2023/12/11 06:41:48;;;;;;;14.10;10.50;;;;;;;21.45;27.49;101019.67;103354;1296;60469;-79
2023/12/11 06:44:14;;;;;;;16.90;10.70;;;;;;;21.43;27.47;101020.14;103404;1296;61300;-79
2023/12/11 06:46:39;;;;;;;16.50;10.70;;;;;;;21.44;27.49;101021.20;103698;1295;61268;-78
2023/12/11 06:49:05;;;;;;;14.10;10.50;;;;;;;21.45;27.61;101032.77;103582;1296;59840;-79
2023/12/11 06:51:31;;;;;;;14.20;10.30;;;;;;;21.47;27.61;101029.23;103762;1296;61397;-81
2023/12/11 06:53:58;;;;;;;13.20;9.50;;;;;;;21.49;27.56;101022.95;103894;1295;59317;-79
2023/12/11 06:56:25;;;;;;;17.60;9.10;;;;;;;21.51;27.72;101026.61;103730;1293;60692;-82
2023/12/11 06:58:51;;;;;;;14.00;8.30;;;;;;;21.50;27.97;101022.53;103636;1295;62414;-79
2023/12/11 07:01:17;;;;;;;24.10;10.30;;;;;;;21.49;28.29;101024.95;103774;1294;59233;-81
2023/12/11 07:03:42;;;;;;;16.60;10.70;;;;;;;21.47;28.67;101025.62;104031;1294;61542;-79
2023/12/11 07:06:11;;;;;;;16.60;10.20;;;;;;;21.44;28.72;101030.66;103741;1295;61290;-80
2023/12/11 07:08:37;;;;;;;18.30;10.70;;;;;;;21.40;28.82;101030.91;103726;1295;61331;-79
2023/12/11 07:11:03;;;;;;;16.70;11.70;;;;;;;21.36;28.74;101037.63;104091;1296;59336;-80
2023/12/11 07:13:29;;;;;;;16.10;11.80;;;;;;;21.33;28.62;101038.40;104174;1298;61445;-80
2023/12/11 07:15:55;;;;;;;20.60;11.70;;;;;;;21.31;28.48;101039.28;104274;1296;61285;-80
2023/12/11 07:18:22;;;;;;;21.90;12.10;;;;;;;21.29;28.50;101036.49;104247;1296;61155;-80
2023/12/11 07:20:47;;;;;;;19.10;11.80;;;;;;;21.29;28.46;101035.64;104105;1296;61362;-82
2023/12/11 07:23:13;;;;;;;21.30;12.70;;;;;;;21.28;28.45;101043.03;103906;1296;59271;-81
2023/12/11 07:25:39;;;;;;;15.00;11.30;;;;;;;21.28;28.40;101047.91;104035;1295;61317;-80
2023/12/11 07:28:05;;;;;;;17.90;12.40;;;;;;;21.27;28.34;101056.01;104301;1297;74444;-80
2023/12/11 07:30:31;;;;;;;18.30;11.20;;;;;;;21.26;28.16;101049.58;104260;1296;59284;-80
2023/12/11 07:32:57;;;;;;;15.80;11.00;;;;;;;21.27;28.25;101045.20;104132;1293;61402;-79
2023/12/11 07:35:24;;;;;;;17.60;11.70;;;;;;;21.29;28.23;101043.48;104029;1295;285703;-80
2023/12/11 07:37:54;;;;;;;16.60;11.60;;;;;;;21.31;28.01;101034.42;104003;1296;74316;-80
2023/12/11 07:40:20;;;;;;;21.20;12.20;;;;;;;21.33;28.04;101033.35;103923;1296;60925;-79
2023/12/11 07:42:46;;;;;;;16.80;10.40;;;;;;;21.37;28.07;101039.89;103912;1296;61301;-80
2023/12/11 07:45:12;;;;;;;18.00;11.40;;;;;;;21.40;28.24;101038.24;104140;1299;61274;-81
2023/12/11 07:47:38;;;;;;;14.60;10.60;;;;;;;21.41;28.24;101032.45;103889;1296;59372;-80
2023/12/11 07:50:04;;;;;;;15.90;10.40;;;;;;;21.40;28.48;101031.46;103965;1295;59780;-79
2023/12/11 07:52:30;;;;;;;16.70;11.10;;;;;;;21.37;28.37;101029.18;104045;1294;61196;-81
2023/12/11 07:54:59;;;;;;;20.80;12.10;;;;;;;21.34;28.58;101033.13;104033;1295;60759;-82
2023/12/11 07:57:26;;;;;;;21.50;13.20;;;;;;;21.31;28.68;101033.02;103950;1295;73272;-80
2023/12/11 07:59:52;;;;;;;18.00;12.90;;;;;;;21.27;29.22;101039.14;104213;1296;74289;-82
2023/12/11 08:02:18;;;;;;;19.40;12.80;;;;;;;21.23;29.48;101041.39;104373;1296;59119;-81
2023/12/11 08:04:44;;;;;;;24.90;13.10;;;;;;;21.18;29.58;101040.98;103935;1296;61533;-81
2023/12/11 08:07:10;;;;;;;21.20;12.30;;;;;;;21.16;29.59;101037.02;103262;1296;61359;-80
2023/12/11 08:09:36;;;;;;;17.70;12.20;;;;;;;21.16;29.54;101033.10;103483;1296;61413;-81
2023/12/11 08:12:02;;;;;;;19.50;12.10;;;;;;;21.18;29.62;101028.87;103732;1298;61281;-80
2023/12/11 08:14:28;;;;;;;18.60;11.50;;;;;;;21.21;29.45;101034.02;104089;1294;61408;-79
2023/12/11 08:16:55;;;;;;;17.40;10.30;;;;;;;21.24;29.51;101032.20;104155;1296;60141;-80
2023/12/11 08:19:20;;;;;;;19.80;10.80;;;;;;;21.28;29.37;101035.70;104129;1298;61356;-80
2023/12/11 08:21:46;;;;;;;18.60;10.90;;;;;;;21.32;29.50;101034.87;103818;1298;58746;-79
2023/12/11 08:24:12;;;;;;;21.80;10.20;;;;;;;21.35;29.53;101033.23;103788;1295;60151;-79
2023/12/11 08:26:37;;;;;;;30.30;10.90;;;;;;;21.39;29.85;101038.00;104201;1295;59384;-79
2023/12/11 08:29:03;;;;;;;20.80;9.70;;;;;;;21.44;30.09;101037.46;104063;1298;61408;-79
2023/12/11 08:31:29;;;;;;;14.50;9.20;;;;;;;21.47;30.29;101036.32;104102;1296;61288;-79
2023/12/11 08:33:54;;;;;;;22.40;10.40;;;;;;;21.51;30.26;101032.53;103543;1294;61461;-78
2023/12/11 08:36:21;;;;;;;17.70;9.80;;;;;;;21.53;30.36;101028.41;103883;1295;61411;-78
2023/12/11 08:38:47;;;;;;;16.50;9.80;;;;;;;21.56;30.35;101031.99;103819;1296;60415;-78
2023/12/11 08:41:14;;;;;;;23.40;10.00;;;;;;;21.58;30.37;101035.42;103921;1298;61208;-78
2023/12/11 08:43:39;;;;;;;17.60;9.40;;;;;;;21.60;30.53;101039.78;104161;1298;61405;-79
2023/12/11 08:46:05;;;;;;;20.20;9.60;;;;;;;21.63;30.36;101038.52;103710;1295;61298;-80
2023/12/11 08:48:31;;;;;;;17.90;9.70;;;;;;;21.65;30.49;101030.52;104029;1294;61325;-81
2023/12/11 08:50:56;;;;;;;16.90;9.70;;;;;;;21.66;30.50;101029.33;103574;1296;61399;-80
2023/12/11 08:53:23;;;;;;;24.00;10.40;;;;;;;21.68;30.53;101027.23;103881;1294;61275;-81
2023/12/11 08:55:49;;;;;;;19.90;10.70;;;;;;;21.68;30.56;101030.08;104267;1295;60203;-81
2023/12/11 08:58:15;;;;;;;34.20;12.20;;;;;;;21.66;30.79;101035.65;103877;1296;60605;-81
2023/12/11 09:00:41;;;;;;;29.70;11.70;;;;;;;21.63;31.31;101038.89;103744;1296;61261;-83
2023/12/11 09:03:07;;;;;;;43.70;12.90;;;;;;;21.58;31.40;101038.10;104461;1296;61306;-80
2023/12/11 09:05:33;;;;;;;33.90;12.40;;;;;;;21.54;31.78;101033.22;104311;1293;61386;-81
2023/12/11 09:07:59;;;;;;;22.80;11.70;;;;;;;21.51;31.87;101033.02;104136;1294;61275;-83
2023/12/11 09:10:24;;;;;;;26.30;12.20;;;;;;;21.49;31.75;101030.35;104232;1296;59491;-83
2023/12/11 09:12:50;;;;;;;20.40;11.80;;;;;;;21.47;31.86;101028.12;104041;1295;61323;-82
2023/12/11 09:15:17;;;;;;;22.00;11.90;;;;;;;21.46;31.71;101024.98;104138;1293;61447;-82
2023/12/11 09:17:44;;;;;;;19.20;11.40;;;;;;;21.45;31.68;101020.23;104396;1296;59908;-83
2023/12/11 09:20:10;;;;;;;18.30;11.00;;;;;;;21.43;31.58;101008.86;104450;1293;61469;-82
2023/12/11 09:22:40;;;;;;;20.90;11.80;;;;;;;21.42;31.54;101007.89;104264;1295;59717;-81
2023/12/11 09:25:06;;;;;;;21.60;11.50;;;;;;;21.41;31.58;101006.01;104161;1294;74506;-81
2023/12/11 09:27:32;;;;;;;16.40;11.30;;;;;;;21.39;31.33;100999.83;104005;1295;61383;-81
2023/12/11 09:29:58;;;;;;;23.90;11.10;;;;;;;21.38;31.43;100993.63;104211;1293;61454;-83
2023/12/11 09:32:24;;;;;;;24.30;11.10;;;;;;;21.37;31.29;100997.63;104885;1296;61193;-84
2023/12/11 09:34:51;;;;;;;22.30;10.90;;;;;;;21.38;31.42;101000.48;104525;1290;160857;-83
2023/12/11 09:37:21;;;;;;;20.80;12.30;;;;;;;21.38;31.50;101002.05;104240;1296;61392;-83
2023/12/11 09:39:47;;;;;;;22.50;11.00;;;;;;;21.38;31.62;101000.85;104032;1294;61257;-82
2023/12/11 09:42:15;;;;;;;20.50;10.60;;;;;;;21.37;31.82;101002.86;104137;1291;61337;-82
2023/12/11 09:44:45;;;;;;;23.00;11.70;;;;;;;21.35;32.04;101003.14;104053;1293;74080;-83
2023/12/11 09:47:39;;;;;;;31.60;12.10;;;;;;;21.33;32.18;100999.70;104043;1294;60859;-83
2023/12/11 09:50:05;;;;;;;30.20;12.10;;;;;;;21.29;32.37;100997.30;104339;1291;61243;-85
2023/12/11 09:52:31;;;;;;;33.30;15.20;;;;;;;21.24;32.58;100996.38;104606;1293;72735;-86
2023/12/11 09:57:40;;;;;;;31.90;15.20;;;;;;;21.10;32.54;100993.63;103749;1294;61392;-79
2023/12/11 10:00:08;;;;;;;34.00;15.30;;;;;;;21.03;32.66;100995.86;103731;1294;61297;-81
2023/12/11 10:02:34;;;;;;;34.80;14.10;;;;;;;20.95;32.71;100993.02;104126;1293;72508;-82
2023/12/11 10:05:09;;;;;;;35.80;15.90;;;;;;;20.87;32.82;100994.98;104497;1296;61237;-84
2023/12/11 10:07:41;;;;;;;23.30;14.40;;;;;;;20.75;32.69;100990.41;104830;1293;61085;-83
2023/12/11 10:10:21;;;;;;;25.30;15.10;;;;;;;20.46;32.62;100987.99;104308;1295;60344;-82
2023/12/11 10:12:47;;;;;;;21.90;14.80;;;;;;;20.33;32.76;100985.45;104599;1294;71496;-79
2023/12/11 10:15:33;;;;;;;38.10;15.80;;;;;;;20.26;32.72;100982.89;104000;1296;61747;-79
2023/12/11 10:18:06;;;;;;;26.90;14.90;;;;;;;20.27;32.78;100980.09;105212;1293;60101;-79
2023/12/11 10:20:33;;;;;;;29.70;14.50;;;;;;;20.31;33.11;100978.06;105633;1293;60073;-79
2023/12/11 10:22:58;;;;;;;24.80;14.20;;;;;;;20.35;33.20;100972.63;105684;1295;58821;-81
2023/12/11 10:25:27;;;;;;;29.30;15.10;;;;;;;20.38;33.12;100968.13;105352;1293;59827;-80
2023/12/11 10:28:07;;;;;;;27.30;14.20;;;;;;;20.41;33.17;100962.94;105290;1293;59959;-81
2023/12/11 10:30:39;;;;;;;25.40;13.50;;;;;;;20.42;33.44;100961.75;104343;1293;60074;-79
2023/12/11 10:33:04;;;;;;;24.80;13.40;;;;;;;20.46;33.26;100962.25;103808;1294;74050;-79
2023/12/11 10:35:30;;;;;;;31.80;14.30;;;;;;;20.47;33.38;100955.91;103774;1293;62809;-79
2023/12/11 10:38:02;;;;;;;27.00;14.60;;;;;;;20.50;33.41;100952.50;103267;1293;61296;-80
2023/12/11 10:40:37;;;;;;;27.00;14.00;;;;;;;20.52;33.49;100946.27;103791;1293;61289;-80
2023/12/11 10:43:03;;;;;;;21.80;14.30;;;;;;;20.53;33.42;100938.70;103897;1293;72372;-81
2023/12/11 10:45:29;;;;;;;25.20;15.20;;;;;;;20.54;33.55;100928.30;103599;1293;63321;-80
2023/12/11 10:47:55;;;;;;;26.70;15.70;;;;;;;20.54;33.68;100923.09;103587;1296;61405;-81
2023/12/11 10:50:21;;;;;;;25.80;16.00;;;;;;;20.54;33.64;100913.78;103937;1293;61422;-80
2023/12/11 10:52:47;;;;;;;26.40;15.20;;;;;;;20.55;33.81;100910.52;103403;1294;61317;-79
2023/12/11 10:55:14;;;;;;;22.10;14.50;;;;;;;20.54;33.71;100910.40;103481;1299;64499;-82
2023/12/11 10:57:40;;;;;;;26.10;13.30;;;;;;;20.55;33.83;100909.10;104369;1295;61391;-80
2023/12/11 11:00:07;;;;;;;27.50;14.30;;;;;;;20.55;33.58;100905.54;103969;1296;61425;-80
2023/12/11 11:02:33;;;;;;;25.00;15.50;;;;;;;20.52;33.57;100902.31;103854;1295;61142;-80
2023/12/11 11:04:59;;;;;;;29.90;16.70;;;;;;;20.41;33.28;100905.38;103928;1295;59422;-81
2023/12/11 11:07:49;;;;;;;29.10;15.90;;;;;;;20.34;33.35;100908.89;103902;1294;61416;-80